createdAt,value
2023-05-21T02:16:33.657Z,1.42
2023-05-21T02:21:58.797Z,1.48
2023-05-21T02:24:30.283Z,1.30
2023-05-21T02:27:27.482Z,1.60
2023-05-21T02:30:29.058Z,1.40
2023-05-21T02:33:03.861Z,1.13
2023-05-21T02:35:33.274Z,1.40
2023-05-21T02:38:14.337Z,1.30
2023-05-21T02:41:32.257Z,1.48
2023-05-21T02:44:05.121Z,1.27
2023-05-21T02:47:37.339Z,1.35
2023-05-21T02:49:33.780Z,1.60
2023-05-21T02:52:37.536Z,1.25
2023-05-21T02:55:15.509Z,2.03
2023-05-21T02:58:31.807Z,1.90
2023-05-21T03:13:30.331Z,1.35
2023-05-21T03:16:06.796Z,1.60
2023-05-21T03:18:35.196Z,1.20
2023-05-21T03:21:17.076Z,1.30
2023-05-21T03:23:59.457Z,1.65
2023-05-21T03:26:31.065Z,1.70
2023-05-21T03:29:02.535Z,1.40
2023-05-21T03:31:34.490Z,1.52
2023-05-21T03:34:02.898Z,1.70
2023-05-21T03:36:33.513Z,1.65
2023-05-21T03:39:01.929Z,1.20
2023-05-21T03:41:33.222Z,1.40
2023-05-21T03:44:01.663Z,1.27
2023-05-21T03:46:33.068Z,0.95
2023-05-21T03:49:15.013Z,1.10
2023-05-21T03:54:33.766Z,1.70
2023-05-21T03:57:17.149Z,1.10
2023-05-21T04:02:34.027Z,1.30
2023-05-21T04:05:04.239Z,1.30
2023-05-21T04:07:32.572Z,1.83
2023-05-21T04:10:15.384Z,1.30
2023-05-21T04:12:53.410Z,1.10
2023-05-21T04:15:30.184Z,1.25
2023-05-21T04:18:05.316Z,0.90
2023-05-21T04:20:33.920Z,1.42
2023-05-21T04:23:02.304Z,1.20
2023-05-21T04:25:33.202Z,1.45
2023-05-21T04:28:05.209Z,1.15
2023-05-21T04:30:36.457Z,1.20
2023-05-21T04:35:38.367Z,1.50
2023-05-21T04:38:06.723Z,1.58
2023-05-21T04:40:36.823Z,1.85
2023-05-21T04:43:28.065Z,1.87
2023-05-21T04:46:05.597Z,1.67
2023-05-21T04:48:36.784Z,1.63
2023-05-21T04:53:39.681Z,1.23
2023-05-21T04:56:08.244Z,1.13
2023-05-21T04:58:36.582Z,1.13
2023-05-21T05:01:05.011Z,1.27
2023-05-21T05:03:33.455Z,1.00
2023-05-21T05:06:05.476Z,1.00
2023-05-21T05:08:34.019Z,1.08
2023-05-21T05:11:02.342Z,1.10
2023-05-21T05:13:30.931Z,0.75
2023-05-21T05:16:02.737Z,1.10
2023-05-21T05:18:31.510Z,1.17
2023-05-21T05:21:04.925Z,0.95
2023-05-21T05:23:35.913Z,1.60
2023-05-21T05:26:07.234Z,0.95
2023-05-21T05:31:06.512Z,0.80
2023-05-21T05:33:35.173Z,0.90
2023-05-21T05:36:06.299Z,1.00
2023-05-21T05:38:36.111Z,1.05
2023-05-21T05:41:04.771Z,0.90
2023-05-21T05:43:36.229Z,1.73
2023-05-21T05:46:04.900Z,0.77
2023-05-21T05:48:33.954Z,1.08
2023-05-21T05:51:05.391Z,0.93
2023-05-21T05:53:33.889Z,0.80
2023-05-21T05:56:02.410Z,0.90
2023-05-21T05:58:32.089Z,0.98
2023-05-21T06:01:00.435Z,1.10
2023-05-21T06:03:35.126Z,0.75
2023-05-21T06:06:03.537Z,1.00
2023-05-21T06:08:31.898Z,1.25
2023-05-21T06:11:02.687Z,1.35
2023-05-21T06:13:33.463Z,1.15
2023-05-21T06:16:02.781Z,1.42
2023-05-21T06:18:31.342Z,1.23
2023-05-21T06:21:03.060Z,1.30
2023-05-21T06:23:36.361Z,1.20
2023-05-21T06:26:08.662Z,1.20
2023-05-21T06:28:37.213Z,1.63
2023-05-21T06:31:08.596Z,1.25
2023-05-21T06:33:39.489Z,1.10
2023-05-21T06:36:10.705Z,1.88
2023-05-21T06:41:07.844Z,1.20
2023-05-21T06:43:36.330Z,1.45
2023-05-21T06:46:04.690Z,1.50
2023-05-21T06:48:36.197Z,1.30
2023-05-21T06:51:04.638Z,1.67
2023-05-21T06:53:33.413Z,1.58
2023-05-21T06:56:07.901Z,1.83
2023-05-21T06:58:39.214Z,1.48
2023-05-21T07:01:08.432Z,1.50
2023-05-21T07:03:39.677Z,1.48
2023-05-21T07:08:39.181Z,1.58
2023-05-21T07:11:10.320Z,1.63
2023-05-21T07:13:38.999Z,2.03
2023-05-21T07:16:07.781Z,1.70
2023-05-21T07:18:39.431Z,1.60
2023-05-21T07:21:07.959Z,1.63
2023-05-21T07:23:36.378Z,1.80
2023-05-21T07:26:07.778Z,1.75
2023-05-21T07:28:39.093Z,1.80
2023-05-21T07:31:10.576Z,1.52
2023-05-21T07:33:39.236Z,1.75
2023-05-21T07:36:07.975Z,1.70
2023-05-21T07:38:41.023Z,1.50
2023-05-21T07:41:09.603Z,1.63
2023-05-21T07:43:40.734Z,1.67
2023-05-21T07:46:09.116Z,1.70
2023-05-21T07:48:37.454Z,1.25
2023-05-21T07:51:06.648Z,1.17
2023-05-21T07:53:41.060Z,1.38
2023-05-21T07:56:13.078Z,1.20
2023-05-21T07:58:41.531Z,1.27
2023-05-21T08:01:09.865Z,1.30
2023-05-21T08:03:38.787Z,1.25
2023-05-21T08:06:16.390Z,1.25
2023-05-21T08:08:44.748Z,1.30
2023-05-21T08:11:13.045Z,1.30
2023-05-21T08:13:42.065Z,1.30
2023-05-21T08:16:10.572Z,1.27
2023-05-21T08:18:41.562Z,1.40
2023-05-21T08:21:10.443Z,1.50
2023-05-21T08:23:38.780Z,1.50
2023-05-21T08:26:13.122Z,1.55
2023-05-21T08:28:41.607Z,1.60
2023-05-21T08:31:09.983Z,1.55
2023-05-21T08:33:39.364Z,1.20
2023-05-21T08:36:08.616Z,1.35
2023-05-21T08:38:37.304Z,1.15
2023-05-21T08:41:09.655Z,1.75
2023-05-21T08:43:39.691Z,1.60
2023-05-21T08:46:09.469Z,1.50
2023-05-21T08:48:42.355Z,1.63
2023-05-21T08:51:10.714Z,1.33
2023-05-21T08:53:43.150Z,1.50
2023-05-21T08:56:14.042Z,1.27
2023-05-21T08:58:44.691Z,1.77
2023-05-21T09:01:13.825Z,1.45
2023-05-21T09:03:43.930Z,1.60
2023-05-21T09:06:15.700Z,1.30
2023-05-21T09:08:55.276Z,1.27
2023-05-21T09:11:24.056Z,1.40
2023-05-21T09:13:57.173Z,1.50
2023-05-21T09:16:25.552Z,1.50
2023-05-21T09:19:04.336Z,1.25
2023-05-21T09:21:44.067Z,1.50
2023-05-21T09:24:12.508Z,2.03
2023-05-21T09:26:44.381Z,1.65
2023-05-21T09:29:14.635Z,1.42
2023-05-21T09:31:46.406Z,1.80
2023-05-21T09:34:18.025Z,1.30
2023-05-21T09:36:46.863Z,1.27
2023-05-21T09:39:30.934Z,2.00
2023-05-21T09:42:05.437Z,2.00
2023-05-21T09:44:39.868Z,1.33
2023-05-21T09:47:13.350Z,1.75
2023-05-21T09:49:45.473Z,1.70
2023-05-21T09:52:13.918Z,1.48
2023-05-21T09:54:42.242Z,1.50
2023-05-21T09:57:10.634Z,1.67
2023-05-21T09:59:51.380Z,1.55
2023-05-21T10:02:23.178Z,1.48
2023-05-21T10:04:53.730Z,1.88
2023-05-21T10:07:27.018Z,2.10
2023-05-21T10:09:59.609Z,1.85
2023-05-21T10:12:31.860Z,2.03
2023-05-21T10:15:05.770Z,1.77
2023-05-21T10:17:37.766Z,1.55
2023-05-21T10:20:12.585Z,1.60
2023-05-21T10:22:44.400Z,1.40
2023-05-21T10:25:14.615Z,1.90
2023-05-21T10:27:43.471Z,1.73
2023-05-21T10:30:12.698Z,1.77
2023-05-21T10:32:43.068Z,2.08
2023-05-21T10:35:12.988Z,1.55
2023-05-21T10:37:42.903Z,2.08
2023-05-21T10:40:26.994Z,1.98
2023-05-21T10:43:16.882Z,2.17
2023-05-21T10:46:12.493Z,1.83
2023-05-21T10:49:04.937Z,1.98
2023-05-21T10:52:08.453Z,1.50
2023-05-21T10:55:03.351Z,2.25
2023-05-21T10:58:08.625Z,1.48
2023-05-21T11:00:47.350Z,1.50
2023-05-21T11:03:17.683Z,2.15
2023-05-21T11:06:11.724Z,1.33
2023-05-21T11:08:48.543Z,1.35
2023-05-21T11:11:59.113Z,1.20
2023-05-21T11:14:36.486Z,1.58
2023-05-21T11:17:22.934Z,1.10
2023-05-21T11:19:53.901Z,1.10
2023-05-21T11:25:28.527Z,1.10
2023-05-21T11:28:10.391Z,0.80
2023-05-21T11:30:47.497Z,1.15
2023-05-21T11:33:21.763Z,0.95
2023-05-21T11:35:56.073Z,0.73
2023-05-21T11:38:35.357Z,0.70
2023-05-21T11:41:18.360Z,0.80
2023-05-21T11:43:47.795Z,0.70
2023-05-21T11:46:27.613Z,0.55
2023-05-21T11:48:56.635Z,0.63
2023-05-21T11:51:38.080Z,0.40
2023-05-21T11:56:49.141Z,0.32
2023-05-21T11:59:18.758Z,0.52
2023-05-21T12:01:49.952Z,0.50
2023-05-21T12:04:22.274Z,0.43
2023-05-21T12:06:51.572Z,0.52
2023-05-21T12:09:24.365Z,0.93
2023-05-21T12:11:52.890Z,0.43
2023-05-21T12:14:26.620Z,0.60
2023-05-21T12:16:55.629Z,0.40
2023-05-21T12:19:27.036Z,0.80
2023-05-21T12:21:55.398Z,0.50
2023-05-21T12:24:26.992Z,0.50
2023-05-21T12:26:56.012Z,0.50
2023-05-21T12:29:24.405Z,0.47
2023-05-21T12:31:52.849Z,0.50
2023-05-21T12:34:48.296Z,0.43
2023-05-21T12:37:20.931Z,0.60
2023-05-21T12:39:51.145Z,0.40
2023-05-21T12:42:28.470Z,0.40
2023-05-21T12:44:57.563Z,0.30
2023-05-21T12:47:40.698Z,0.40
2023-05-21T12:50:16.358Z,0.60
2023-05-21T12:52:50.134Z,0.30
2023-05-21T12:55:25.107Z,0.22
2023-05-21T12:58:11.739Z,0.50
2023-05-21T13:00:46.590Z,0.40
2023-05-21T13:03:26.206Z,0.30
2023-05-21T13:06:02.204Z,0.40
2023-05-21T13:08:30.929Z,0.40
2023-05-21T13:10:59.245Z,0.50
2023-05-21T13:13:33.988Z,0.35
2023-05-21T13:16:25.123Z,0.38
2023-05-21T13:18:53.511Z,0.30
2023-05-21T13:21:22.829Z,0.45
2023-05-21T13:23:51.105Z,0.43
2023-05-21T13:26:19.444Z,0.40
2023-05-21T13:28:50.185Z,0.30
2023-05-21T13:31:18.559Z,0.30
2023-05-21T13:33:52.188Z,0.43
2023-05-21T13:36:20.536Z,0.40
2023-05-21T13:38:48.808Z,0.40
2023-05-21T13:41:20.368Z,0.22
2023-05-21T13:43:51.968Z,0.32
2023-05-21T13:46:20.332Z,0.10
2023-05-21T13:48:51.900Z,0.13
2023-05-21T13:51:37.429Z,0.20
2023-05-21T13:54:07.254Z,0.30
2023-05-21T13:56:50.883Z,0.40
2023-05-21T13:59:19.248Z,0.20
2023-05-21T14:01:48.970Z,0.20
2023-05-21T14:04:20.958Z,0.28
2023-05-21T14:06:53.220Z,0.30
2023-05-21T14:09:22.271Z,0.28
2023-05-21T14:11:50.669Z,0.22
2023-05-21T14:14:20.019Z,0.40
2023-05-21T14:16:49.218Z,0.22
2023-05-21T14:19:18.182Z,0.30
2023-05-21T14:21:49.053Z,0.20
2023-05-21T14:24:17.333Z,0.30
2023-05-21T14:26:48.199Z,0.20
2023-05-21T14:29:16.924Z,0.20
2023-05-21T14:31:47.120Z,0.50
2023-05-21T14:34:15.533Z,0.30
2023-05-21T14:36:43.993Z,0.30
2023-05-21T14:39:20.952Z,0.35
2023-05-21T14:41:49.538Z,0.40
2023-05-21T14:44:23.401Z,0.40
2023-05-21T14:46:52.301Z,0.70
2023-05-21T14:49:23.195Z,0.40
2023-05-21T14:51:53.098Z,0.55
2023-05-21T14:54:21.391Z,0.70
2023-05-21T14:56:52.113Z,0.57
2023-05-21T14:59:23.217Z,0.68
2023-05-21T15:01:51.943Z,0.68
2023-05-21T15:04:24.289Z,0.65
2023-05-21T15:07:23.428Z,0.60
2023-05-21T15:09:52.088Z,0.88
2023-05-21T15:12:24.124Z,0.90
2023-05-21T15:14:53.899Z,1.27
2023-05-21T15:17:22.471Z,0.95
2023-05-21T15:19:54.130Z,1.30
2023-05-21T15:22:25.561Z,1.20
2023-05-21T15:24:53.920Z,1.05
2023-05-21T15:27:22.919Z,1.30
2023-05-21T15:29:55.330Z,1.10
2023-05-21T15:32:23.789Z,1.05
2023-05-21T15:34:54.307Z,1.00
2023-05-21T15:37:25.775Z,0.75
2023-05-21T15:39:54.836Z,1.15
2023-05-21T15:42:26.813Z,1.25
2023-05-21T15:44:57.254Z,1.23
2023-05-21T15:47:25.545Z,1.57
2023-05-21T15:49:54.061Z,1.63
2023-05-21T15:52:24.334Z,1.35
2023-05-21T15:54:53.006Z,1.10
2023-05-21T15:57:56.509Z,1.23
2023-05-21T16:00:24.893Z,1.10
2023-05-21T16:02:53.619Z,0.93
2023-05-21T16:05:25.285Z,1.10
2023-05-21T16:07:53.775Z,1.50
2023-05-21T16:10:23.598Z,1.33
2023-05-21T16:12:52.160Z,1.75
2023-05-21T16:15:23.214Z,0.90
2023-05-21T16:17:51.835Z,1.08
2023-05-21T16:20:23.931Z,1.08
2023-05-21T16:22:55.333Z,1.00
2023-05-21T16:25:24.618Z,1.20
2023-05-21T16:27:52.936Z,1.30
2023-05-21T16:30:22.086Z,1.25
2023-05-21T16:32:50.550Z,1.40
2023-05-21T16:35:18.974Z,1.00
2023-05-21T16:37:47.406Z,1.20
2023-05-21T16:40:15.951Z,1.08
2023-05-21T16:42:44.629Z,1.05
2023-05-21T16:45:20.749Z,1.00
2023-05-21T16:47:52.909Z,1.30
2023-05-21T16:50:22.090Z,1.33
2023-05-21T16:52:56.153Z,1.13
2023-05-21T16:55:24.617Z,1.60
2023-05-21T16:57:55.618Z,1.98
2023-05-21T17:00:23.999Z,1.45
2023-05-21T17:02:59.891Z,1.00
2023-05-21T17:05:28.494Z,1.10
2023-05-21T17:07:56.874Z,1.13
2023-05-21T17:10:26.177Z,1.42
2023-05-21T17:12:55.298Z,1.35
2023-05-21T17:15:28.034Z,1.20
2023-05-21T17:17:56.658Z,1.40
2023-05-21T17:20:28.298Z,1.75
2023-05-21T17:22:56.641Z,1.30
2023-05-21T17:25:26.074Z,1.58
2023-05-21T17:27:54.542Z,1.35
2023-05-21T17:30:23.355Z,1.63
2023-05-21T17:32:54.711Z,1.60
2023-05-21T17:35:23.146Z,1.48
2023-05-21T17:37:51.534Z,1.65
2023-05-21T17:40:25.316Z,1.55
2023-05-21T17:42:57.561Z,1.70
2023-05-21T17:45:26.154Z,1.60
2023-05-21T17:48:05.012Z,1.63
2023-05-21T17:50:34.886Z,1.60
2023-05-21T17:53:03.191Z,1.50
2023-05-21T17:55:34.376Z,1.65
2023-05-21T18:00:32.952Z,2.05
2023-05-21T18:03:05.219Z,0.90
2023-05-21T18:05:37.004Z,1.63
2023-05-21T18:08:05.660Z,2.15
2023-05-21T18:10:37.397Z,1.75
2023-05-21T18:13:06.254Z,2.20
2023-05-21T18:15:40.041Z,2.05
2023-05-21T21:44:14.383Z,1.63
2023-05-21T22:25:18.695Z,2.08
2023-05-21T22:47:21.118Z,1.55
2023-05-21T22:57:17.187Z,2.30
2023-05-21T23:20:34.295Z,2.03
